createdAt,value
2023-01-09T00:00:36.154Z,1023.25
2023-01-09T00:01:36.737Z,1023.22
2023-01-09T00:02:37.336Z,1023.20
2023-01-09T00:03:37.999Z,1023.27
2023-01-09T00:04:38.598Z,1023.32
2023-01-09T00:05:39.198Z,1023.23
2023-01-09T00:06:39.790Z,1023.31
2023-01-09T00:07:41.242Z,1023.25
2023-01-09T00:08:41.886Z,1023.29
2023-01-09T00:09:42.550Z,1023.31
2023-01-09T00:10:43.146Z,1023.36
2023-01-09T00:11:43.756Z,1023.32
2023-01-09T00:12:44.345Z,1023.33
2023-01-09T00:13:44.961Z,1023.33
2023-01-09T00:14:45.538Z,1023.35
2023-01-09T00:15:46.143Z,1023.43
2023-01-09T00:16:46.813Z,1023.33
2023-01-09T00:17:47.425Z,1023.43
2023-01-09T00:18:48.019Z,1023.38
2023-01-09T00:19:48.625Z,1023.38
2023-01-09T00:20:49.233Z,1023.37
2023-01-09T00:21:49.815Z,1023.43
2023-01-09T00:22:50.412Z,1023.40
2023-01-09T00:23:51.010Z,1023.42
2023-01-09T00:24:51.609Z,1023.47
2023-01-09T00:25:52.307Z,1023.48
2023-01-09T00:26:52.909Z,1023.48
2023-01-09T00:27:53.507Z,1023.52
2023-01-09T00:28:54.111Z,1023.52
2023-01-09T00:29:54.701Z,1023.58
2023-01-09T00:30:55.363Z,1023.56
2023-01-09T00:31:56.146Z,1023.50
2023-01-09T00:32:56.789Z,1023.55
2023-01-09T00:33:57.493Z,1023.50
2023-01-09T00:34:58.135Z,1023.55
2023-01-09T00:35:58.746Z,1023.55
2023-01-09T00:36:59.331Z,1023.48
2023-01-09T00:37:59.928Z,1023.60
2023-01-09T00:39:00.522Z,1023.59
2023-01-09T00:40:01.124Z,1023.53
2023-01-09T00:41:01.723Z,1023.60
2023-01-09T00:42:02.334Z,1023.63
2023-01-09T00:43:02.919Z,1023.62
2023-01-09T00:44:03.517Z,1023.65
2023-01-09T00:45:04.117Z,1023.61
2023-01-09T00:46:04.874Z,1023.61
2023-01-09T00:47:05.455Z,1023.63
2023-01-09T00:48:06.053Z,1023.71
2023-01-09T00:49:06.647Z,1023.61
2023-01-09T00:50:07.249Z,1023.68
2023-01-09T00:51:07.842Z,1023.70
2023-01-09T00:52:08.447Z,1023.62
2023-01-09T00:53:09.042Z,1023.59
2023-01-09T00:54:09.644Z,1023.61
2023-01-09T00:55:10.239Z,1023.67
2023-01-09T00:56:10.844Z,1023.58
2023-01-09T00:57:11.513Z,1023.61
2023-01-09T00:58:12.125Z,1023.65
2023-01-09T00:59:12.705Z,1023.55
2023-01-09T01:00:13.308Z,1023.60
2023-01-09T01:01:14.035Z,1023.62
2023-01-09T01:02:14.928Z,1023.71
2023-01-09T01:03:15.643Z,1023.51
2023-01-09T01:04:16.259Z,1023.51
2023-01-09T01:05:16.902Z,1023.51
2023-01-09T01:06:17.501Z,1023.48
2023-01-09T01:07:18.096Z,1023.54
2023-01-09T01:08:18.714Z,1023.55
2023-01-09T01:09:19.294Z,1023.47
2023-01-09T01:10:19.907Z,1023.53
2023-01-09T01:11:20.565Z,1023.55
2023-01-09T01:12:21.166Z,1023.54
2023-01-09T01:13:21.773Z,1023.53
2023-01-09T01:14:22.365Z,1023.61
2023-01-09T01:15:22.965Z,1023.62
2023-01-09T01:16:23.612Z,1023.63
2023-01-09T01:17:24.206Z,1023.61
2023-01-09T01:18:24.816Z,1023.62
2023-01-09T01:19:25.419Z,1023.64
2023-01-09T01:20:26.069Z,1023.66
2023-01-09T01:21:26.665Z,1023.70
2023-01-09T01:22:27.270Z,1023.67
2023-01-09T01:23:27.859Z,1023.73
2023-01-09T01:24:28.460Z,1023.70
2023-01-09T01:25:29.054Z,1023.65
2023-01-09T01:26:29.720Z,1023.74
2023-01-09T01:27:30.314Z,1023.74
2023-01-09T01:28:30.917Z,1023.72
2023-01-09T01:29:31.506Z,1023.68
2023-01-09T01:30:32.138Z,1023.66
2023-01-09T01:31:32.727Z,1023.74
2023-01-09T01:32:33.378Z,1023.82
2023-01-09T01:33:33.974Z,1023.73
2023-01-09T01:34:34.587Z,1023.78
2023-01-09T01:35:35.420Z,1023.76
2023-01-09T01:36:36.091Z,1023.84
2023-01-09T01:37:36.672Z,1023.75
2023-01-09T01:38:37.276Z,1023.75
2023-01-09T01:39:37.871Z,1023.81
2023-01-09T01:40:38.533Z,1023.75
2023-01-09T01:41:39.133Z,1023.76
2023-01-09T01:42:39.713Z,1023.75
2023-01-09T01:43:40.318Z,1023.77
2023-01-09T01:44:40.911Z,1023.79
2023-01-09T01:45:41.541Z,1023.73
2023-01-09T01:46:42.143Z,1023.75
2023-01-09T01:47:42.791Z,1023.76
2023-01-09T01:48:43.384Z,1023.78
2023-01-09T01:49:44.837Z,1023.77
2023-01-09T01:50:45.430Z,1023.76
2023-01-09T01:51:46.040Z,1023.74
2023-01-09T01:52:46.626Z,1023.69
2023-01-09T01:53:47.228Z,1023.69
2023-01-09T01:54:47.823Z,1023.74
2023-01-09T01:55:48.423Z,1023.69
2023-01-09T01:56:49.042Z,1023.73
2023-01-09T01:57:49.678Z,1023.71
2023-01-09T01:58:50.276Z,1023.73
2023-01-09T01:59:50.874Z,1023.71
2023-01-09T02:00:51.519Z,1023.71
2023-01-09T02:01:52.296Z,1023.78
2023-01-09T02:02:52.841Z,1023.72
2023-01-09T02:03:53.450Z,1023.72
2023-01-09T02:04:54.044Z,1023.82
2023-01-09T02:05:54.694Z,1023.71
2023-01-09T02:06:55.286Z,1023.78
2023-01-09T02:07:55.900Z,1023.77
2023-01-09T02:08:56.489Z,1023.71
2023-01-09T02:09:57.089Z,1023.78
2023-01-09T02:10:57.748Z,1023.76
2023-01-09T02:11:58.351Z,1023.75
2023-01-09T02:12:58.949Z,1023.82
2023-01-09T02:14:00.347Z,1023.82
2023-01-09T02:15:00.951Z,1023.85
2023-01-09T02:16:01.582Z,1023.81
2023-01-09T02:17:02.229Z,1023.87
2023-01-09T02:18:02.833Z,1023.83
2023-01-09T02:19:03.412Z,1023.85
2023-01-09T02:20:04.015Z,1023.94
2023-01-09T02:21:04.609Z,1023.87
2023-01-09T02:22:05.213Z,1024.02
2023-01-09T02:23:05.875Z,1024.03
2023-01-09T02:24:06.501Z,1024.05
2023-01-09T02:25:07.085Z,1024.00
2023-01-09T02:26:07.740Z,1023.93
2023-01-09T02:27:08.336Z,1024.09
2023-01-09T02:28:08.945Z,1024.06
2023-01-09T02:29:09.539Z,1024.11
2023-01-09T02:30:10.132Z,1024.09
2023-01-09T02:31:10.766Z,1024.23
2023-01-09T02:32:11.385Z,1024.22
2023-01-09T02:33:11.977Z,1024.18
2023-01-09T02:34:12.582Z,1024.11
2023-01-09T02:35:13.169Z,1024.14
2023-01-09T02:36:13.772Z,1024.15
2023-01-09T02:37:14.365Z,1024.20
2023-01-09T02:38:15.818Z,1024.29
2023-01-09T02:39:16.413Z,1024.20
2023-01-09T02:40:17.016Z,1024.25
2023-01-09T02:41:17.612Z,1024.34
2023-01-09T02:42:19.070Z,1024.31
2023-01-09T02:43:19.660Z,1024.32
2023-01-09T02:44:20.272Z,1024.35
2023-01-09T02:45:20.859Z,1024.32
2023-01-09T02:46:21.456Z,1024.33
2023-01-09T02:47:22.052Z,1024.41
2023-01-09T02:48:22.655Z,1024.36
2023-01-09T02:49:24.095Z,1024.47
2023-01-09T02:50:24.698Z,1024.44
2023-01-09T02:51:25.342Z,1024.45
2023-01-09T02:52:25.989Z,1024.45
2023-01-09T02:53:26.590Z,1024.50
2023-01-09T02:54:27.186Z,1024.51
2023-01-09T02:55:27.778Z,1024.47
2023-01-09T02:56:28.386Z,1024.48
2023-01-09T02:57:41.712Z,1024.40
2023-01-09T02:58:42.375Z,1024.52
2023-01-09T02:59:42.967Z,1024.51
2023-01-09T03:00:43.586Z,1024.44
2023-01-09T03:01:44.286Z,1024.61
2023-01-09T03:02:44.993Z,1024.55
2023-01-09T03:03:45.594Z,1024.55
2023-01-09T03:04:46.196Z,1024.49
2023-01-09T03:05:46.789Z,1024.50
2023-01-09T03:06:47.417Z,1024.56
2023-01-09T03:07:47.995Z,1024.55
2023-01-09T03:08:48.597Z,1024.59
2023-01-09T03:09:49.193Z,1024.55
2023-01-09T03:10:49.792Z,1024.60
2023-01-09T03:11:50.386Z,1024.59
2023-01-09T03:12:50.987Z,1024.61
2023-01-09T03:13:51.596Z,1024.62
2023-01-09T03:14:52.331Z,1024.65
2023-01-09T03:15:52.929Z,1024.65
2023-01-09T03:16:53.526Z,1024.66
2023-01-09T03:17:54.119Z,1024.64
2023-01-09T03:18:54.727Z,1024.76
2023-01-09T03:19:55.315Z,1024.74
2023-01-09T03:20:55.922Z,1024.74
2023-01-09T03:21:56.581Z,1024.74
2023-01-09T03:22:57.188Z,1024.80
2023-01-09T03:23:57.849Z,1024.85
2023-01-09T03:24:58.451Z,1024.80
2023-01-09T03:25:59.042Z,1024.80
2023-01-09T03:26:59.645Z,1024.81
2023-01-09T03:28:00.250Z,1024.75
2023-01-09T03:29:00.847Z,1024.84
2023-01-09T03:30:01.481Z,1024.88
2023-01-09T03:31:02.099Z,1024.87
2023-01-09T03:32:02.698Z,1024.88
2023-01-09T03:33:03.360Z,1024.94
2023-01-09T03:34:03.966Z,1024.95
2023-01-09T03:35:04.559Z,1024.88
2023-01-09T03:36:05.158Z,1024.93
2023-01-09T03:37:05.760Z,1024.91
2023-01-09T03:38:07.969Z,1024.89
2023-01-09T03:39:07.951Z,1024.87
2023-01-09T03:40:08.643Z,1024.89
2023-01-09T03:41:09.244Z,1024.84
2023-01-09T03:42:09.848Z,1024.87
2023-01-09T03:43:10.436Z,1024.76
2023-01-09T03:44:11.051Z,1024.80
2023-01-09T03:45:11.628Z,1024.76
2023-01-09T03:46:12.245Z,1024.86
2023-01-09T03:47:12.887Z,1024.80
2023-01-09T03:48:13.551Z,1024.80
2023-01-09T03:49:14.147Z,1024.80
2023-01-09T03:50:14.744Z,1024.74
2023-01-09T03:51:15.342Z,1024.82
2023-01-09T03:52:15.940Z,1024.78
2023-01-09T03:53:16.543Z,1024.80
2023-01-09T03:54:17.182Z,1024.80
2023-01-09T03:55:18.642Z,1024.82
2023-01-09T03:56:19.279Z,1024.82
2023-01-09T03:57:19.881Z,1024.84
2023-01-09T03:58:20.533Z,1024.89
2023-01-09T03:59:21.125Z,1024.89
2023-01-09T04:00:21.717Z,1025.00
2023-01-09T04:01:22.398Z,1024.94
2023-01-09T04:02:23.024Z,1025.00
2023-01-09T04:03:23.623Z,1024.99
2023-01-09T04:04:24.211Z,1025.03
2023-01-09T04:05:24.826Z,1025.08
2023-01-09T04:06:25.414Z,1025.07
2023-01-09T04:07:26.180Z,1025.03
2023-01-09T04:08:26.779Z,1024.95
2023-01-09T04:09:27.376Z,1024.97
2023-01-09T04:10:27.976Z,1025.05
2023-01-09T04:11:28.572Z,1025.05
2023-01-09T04:12:29.165Z,1024.99
2023-01-09T04:13:29.769Z,1025.00
2023-01-09T04:14:30.399Z,1025.03
2023-01-09T04:15:30.974Z,1025.05
2023-01-09T04:16:31.657Z,1025.05
2023-01-09T04:17:32.432Z,1024.97
2023-01-09T04:18:33.034Z,1024.93
2023-01-09T04:19:33.663Z,1024.92
2023-01-09T04:20:34.261Z,1024.97
2023-01-09T04:21:34.875Z,1025.00
2023-01-09T04:22:35.455Z,1025.05
2023-01-09T04:23:36.057Z,1025.08
2023-01-09T04:24:36.653Z,1024.97
2023-01-09T04:25:37.273Z,1025.03
2023-01-09T04:26:37.916Z,1025.02
2023-01-09T04:27:38.522Z,1025.07
2023-01-09T04:28:39.107Z,1025.00
2023-01-09T04:29:39.709Z,1025.06
2023-01-09T04:30:40.302Z,1025.04
2023-01-09T04:31:40.937Z,1025.05
2023-01-09T04:32:41.589Z,1025.08
2023-01-09T04:33:42.187Z,1025.08
2023-01-09T04:34:42.781Z,1025.06
2023-01-09T04:35:43.385Z,1025.11
2023-01-09T04:36:43.982Z,1025.06
2023-01-09T04:37:44.589Z,1025.09
2023-01-09T04:38:45.253Z,1025.07
2023-01-09T04:39:45.852Z,1025.13
2023-01-09T04:40:46.440Z,1025.14
2023-01-09T04:41:47.047Z,1025.11
2023-01-09T04:42:47.687Z,1025.17
2023-01-09T04:43:48.288Z,1025.14
2023-01-09T04:44:48.879Z,1025.09
2023-01-09T04:45:49.501Z,1025.11
2023-01-09T04:46:50.092Z,1025.13
2023-01-09T04:47:50.697Z,1025.11
2023-01-09T04:48:51.359Z,1025.12
2023-01-09T04:49:52.762Z,1025.08
2023-01-09T04:50:53.356Z,1025.17
2023-01-09T04:51:53.963Z,1025.13
2023-01-09T04:52:54.560Z,1025.19
2023-01-09T04:53:55.227Z,1025.20
2023-01-09T04:54:55.818Z,1025.22
2023-01-09T04:55:56.417Z,1025.17
2023-01-09T04:56:57.160Z,1025.17
2023-01-09T04:57:57.766Z,1025.11
2023-01-09T04:58:58.358Z,1025.20
2023-01-09T04:59:59.004Z,1025.21
2023-01-09T05:00:59.849Z,1025.25
2023-01-09T05:02:00.694Z,1025.18
2023-01-09T05:03:01.408Z,1025.27
2023-01-09T05:04:02.059Z,1025.27
2023-01-09T05:05:02.684Z,1025.31
2023-01-09T05:06:03.288Z,1025.20
2023-01-09T05:07:03.883Z,1025.21
2023-01-09T05:08:04.488Z,1025.23
2023-01-09T05:09:05.080Z,1025.25
2023-01-09T05:10:05.681Z,1025.31
2023-01-09T05:11:06.276Z,1025.37
2023-01-09T05:12:06.875Z,1025.39
2023-01-09T05:13:07.468Z,1025.40
2023-01-09T05:14:08.077Z,1025.42
2023-01-09T05:15:08.662Z,1025.45
2023-01-09T05:16:09.300Z,1025.49
2023-01-09T05:17:09.924Z,1025.50
2023-01-09T05:18:10.542Z,1025.53
2023-01-09T05:19:11.125Z,1025.55
2023-01-09T05:20:11.721Z,1025.51
2023-01-09T05:21:12.318Z,1025.53
2023-01-09T05:22:12.921Z,1025.61
2023-01-09T05:23:13.583Z,1025.56
2023-01-09T05:24:14.191Z,1025.56
2023-01-09T05:25:14.780Z,1025.66
2023-01-09T05:26:15.383Z,1025.58
2023-01-09T05:27:15.976Z,1025.55
2023-01-09T05:28:16.581Z,1025.66
2023-01-09T05:29:17.170Z,1025.60
2023-01-09T05:30:18.442Z,1025.68
2023-01-09T05:31:19.290Z,1025.75
2023-01-09T05:32:19.893Z,1025.74
2023-01-09T05:33:20.485Z,1025.69
2023-01-09T05:34:21.096Z,1025.61
2023-01-09T05:35:21.700Z,1025.65
2023-01-09T05:36:22.355Z,1025.71
2023-01-09T05:37:22.950Z,1025.75
2023-01-09T05:38:23.550Z,1025.64
2023-01-09T05:39:24.144Z,1025.71
2023-01-09T05:40:29.003Z,1025.64
2023-01-09T05:41:26.338Z,1025.69
2023-01-09T05:42:27.004Z,1025.75
2023-01-09T05:43:27.593Z,1025.72
2023-01-09T05:44:28.192Z,1025.75
2023-01-09T05:45:28.813Z,1025.72
2023-01-09T05:46:29.416Z,1025.75
2023-01-09T05:47:30.062Z,1025.78
2023-01-09T05:48:30.663Z,1025.74
2023-01-09T05:49:31.273Z,1025.81
2023-01-09T05:50:31.860Z,1025.78
2023-01-09T05:51:32.457Z,1025.78
2023-01-09T05:52:33.053Z,1025.79
2023-01-09T05:53:33.648Z,1025.78
2023-01-09T05:54:34.244Z,1025.79
2023-01-09T05:55:34.840Z,1025.80
2023-01-09T05:56:35.454Z,1025.88
2023-01-09T05:57:36.068Z,1025.86
2023-01-09T05:58:36.719Z,1025.85
2023-01-09T05:59:37.320Z,1025.79
2023-01-09T06:00:37.927Z,1025.85
2023-01-09T06:01:38.575Z,1025.85
2023-01-09T06:02:39.299Z,1025.90
2023-01-09T06:03:39.959Z,1025.91
2023-01-09T06:04:40.556Z,1025.98
2023-01-09T06:05:41.160Z,1025.91
2023-01-09T06:06:41.815Z,1025.96
2023-01-09T06:07:42.407Z,1026.01
2023-01-09T06:08:43.071Z,1026.05
2023-01-09T06:09:43.825Z,1025.95
2023-01-09T06:10:44.413Z,1026.01
2023-01-09T06:11:45.019Z,1025.96
2023-01-09T06:12:45.612Z,1026.13
2023-01-09T06:13:46.219Z,1026.10
2023-01-09T06:14:46.824Z,1026.08
2023-01-09T06:15:47.457Z,1026.17
2023-01-09T06:16:48.077Z,1026.18
2023-01-09T06:17:48.681Z,1026.22
2023-01-09T06:18:49.276Z,1026.17
2023-01-09T06:19:49.879Z,1026.11
2023-01-09T06:20:50.474Z,1026.14
2023-01-09T06:21:51.875Z,1026.18
2023-01-09T06:22:52.486Z,1026.28
2023-01-09T06:23:53.076Z,1026.20
2023-01-09T06:24:53.663Z,1026.22
2023-01-09T06:25:54.266Z,1026.25
2023-01-09T06:26:54.859Z,1026.25
2023-01-09T06:27:55.461Z,1026.19
2023-01-09T06:28:56.057Z,1026.27
2023-01-09T06:29:56.655Z,1026.35
2023-01-09T06:30:57.309Z,1026.38
2023-01-09T06:31:57.948Z,1026.37
2023-01-09T06:32:58.538Z,1026.42
2023-01-09T06:33:59.988Z,1026.40
2023-01-09T06:35:01.458Z,1026.43
2023-01-09T06:36:02.036Z,1026.54
2023-01-09T06:37:02.629Z,1026.49
2023-01-09T06:38:03.268Z,1026.47
2023-01-09T06:39:03.870Z,1026.43
2023-01-09T06:40:04.529Z,1026.46
2023-01-09T06:41:05.121Z,1026.47
2023-01-09T06:42:05.730Z,1026.60
2023-01-09T06:43:06.324Z,1026.64
2023-01-09T06:44:06.917Z,1026.60
2023-01-09T06:45:07.518Z,1026.60
2023-01-09T06:46:08.131Z,1026.66
2023-01-09T06:47:08.725Z,1026.61
2023-01-09T06:48:09.330Z,1026.60
2023-01-09T06:49:10.093Z,1026.58
2023-01-09T06:50:10.707Z,1026.60
2023-01-09T06:51:11.312Z,1026.64
2023-01-09T06:52:11.904Z,1026.69
2023-01-09T06:53:12.499Z,1026.65
2023-01-09T06:54:13.102Z,1026.71
2023-01-09T06:55:13.701Z,1026.73
2023-01-09T06:56:14.304Z,1026.74
2023-01-09T06:57:14.988Z,1026.78
2023-01-09T06:58:15.591Z,1026.76
2023-01-09T06:59:16.189Z,1026.78
2023-01-09T07:00:16.792Z,1026.78
2023-01-09T07:01:17.526Z,1026.83
2023-01-09T07:02:18.251Z,1026.86
2023-01-09T07:03:18.900Z,1026.83
2023-01-09T07:04:19.507Z,1026.90
2023-01-09T07:05:20.139Z,1026.87
2023-01-09T07:06:20.805Z,1026.87
2023-01-09T07:07:21.393Z,1026.82
2023-01-09T07:08:22.006Z,1026.80
2023-01-09T07:09:22.598Z,1026.94
2023-01-09T07:10:23.197Z,1026.93
2023-01-09T07:11:23.789Z,1026.97
2023-01-09T07:12:24.389Z,1026.98
2023-01-09T07:13:24.985Z,1027.03
2023-01-09T07:14:25.588Z,1026.96
2023-01-09T07:15:26.283Z,1027.00
2023-01-09T07:16:26.884Z,1027.05
2023-01-09T07:17:27.482Z,1027.04
2023-01-09T07:18:28.131Z,1027.03
2023-01-09T07:19:28.738Z,1027.06
2023-01-09T07:20:29.337Z,1027.07
2023-01-09T07:21:32.585Z,1027.07
2023-01-09T07:22:30.602Z,1027.03
2023-01-09T07:23:31.181Z,1027.00
2023-01-09T07:24:31.784Z,1027.11
2023-01-09T07:25:32.388Z,1027.12
2023-01-09T07:26:32.989Z,1027.17
2023-01-09T07:27:33.583Z,1027.26
2023-01-09T07:28:34.185Z,1027.18
2023-01-09T07:29:34.786Z,1027.21
2023-01-09T07:30:35.387Z,1027.21
2023-01-09T07:31:35.998Z,1027.38
2023-01-09T07:32:36.637Z,1027.32
2023-01-09T07:33:37.232Z,1027.34
2023-01-09T07:34:37.837Z,1027.37
2023-01-09T07:35:39.275Z,1027.41
2023-01-09T07:36:39.878Z,1027.43
2023-01-09T07:37:40.476Z,1027.41
2023-01-09T07:38:41.077Z,1027.51
2023-01-09T07:39:41.672Z,1027.46
2023-01-09T07:40:42.274Z,1027.55
2023-01-09T07:41:42.869Z,1027.55
2023-01-09T07:42:43.474Z,1027.54
2023-01-09T07:43:44.083Z,1027.52
2023-01-09T07:44:44.666Z,1027.50
2023-01-09T07:45:45.261Z,1027.55
2023-01-09T07:46:45.862Z,1027.61
2023-01-09T07:47:46.517Z,1027.50
2023-01-09T07:48:47.115Z,1027.47
2023-01-09T07:49:47.708Z,1027.50
2023-01-09T07:50:48.317Z,1027.50
2023-01-09T07:51:48.905Z,1027.49
2023-01-09T07:52:49.510Z,1027.53
2023-01-09T07:53:50.106Z,1027.50
2023-01-09T07:54:50.774Z,1027.57
2023-01-09T07:55:51.431Z,1027.57
2023-01-09T07:56:52.085Z,1027.63
2023-01-09T07:57:52.683Z,1027.57
2023-01-09T07:58:53.346Z,1027.62
2023-01-09T07:59:53.938Z,1027.70
2023-01-09T08:00:55.440Z,1027.62
2023-01-09T08:01:56.112Z,1027.64
2023-01-09T08:02:56.722Z,1027.61
2023-01-09T08:03:57.303Z,1027.61
2023-01-09T08:04:57.904Z,1027.65
2023-01-09T08:05:58.500Z,1027.65
2023-01-09T08:06:59.099Z,1027.66
2023-01-09T08:07:59.693Z,1027.63
2023-01-09T08:09:00.300Z,1027.73
2023-01-09T08:10:00.888Z,1027.75
2023-01-09T08:11:01.490Z,1027.77
2023-01-09T08:12:02.136Z,1027.86
2023-01-09T08:13:02.751Z,1027.80
2023-01-09T08:14:03.409Z,1027.80
2023-01-09T08:15:04.021Z,1027.83
2023-01-09T08:16:04.677Z,1027.82
2023-01-09T08:17:05.270Z,1027.84
2023-01-09T08:18:05.866Z,1027.80
2023-01-09T08:19:06.465Z,1027.84
2023-01-09T08:20:07.060Z,1027.88
2023-01-09T08:21:07.661Z,1027.93
2023-01-09T08:22:09.108Z,1027.94
2023-01-09T08:23:09.722Z,1027.92
2023-01-09T08:24:10.373Z,1027.96
2023-01-09T08:25:12.400Z,1027.93
2023-01-09T08:26:12.567Z,1027.93
2023-01-09T08:27:13.226Z,1028.01
2023-01-09T08:28:13.830Z,1027.96
2023-01-09T08:29:14.424Z,1027.93
2023-01-09T08:30:15.018Z,1027.93
2023-01-09T08:31:15.685Z,1028.00
2023-01-09T08:32:16.289Z,1027.98
2023-01-09T08:33:17.040Z,1027.96
2023-01-09T08:34:17.634Z,1027.89
2023-01-09T08:35:18.238Z,1027.88
2023-01-09T08:36:18.930Z,1027.83
2023-01-09T08:37:19.539Z,1027.74
2023-01-09T08:38:20.129Z,1027.70
2023-01-09T08:39:20.749Z,1027.70
2023-01-09T08:40:21.344Z,1027.71
2023-01-09T08:41:22.181Z,1027.65
2023-01-09T08:42:22.763Z,1027.66
2023-01-09T08:43:23.361Z,1027.67
2023-01-09T08:44:23.955Z,1027.73
2023-01-09T08:45:24.567Z,1027.73
2023-01-09T08:46:25.243Z,1027.80
2023-01-09T08:47:25.828Z,1027.85
2023-01-09T08:48:26.427Z,1027.80
2023-01-09T08:49:27.066Z,1027.89
2023-01-09T08:50:27.695Z,1027.95
2023-01-09T08:51:28.298Z,1027.95
2023-01-09T08:52:28.887Z,1028.01
2023-01-09T08:53:29.490Z,1028.01
2023-01-09T08:54:31.335Z,1027.94
2023-01-09T08:55:31.681Z,1028.09
2023-01-09T08:56:32.274Z,1028.03
2023-01-09T08:57:32.879Z,1028.11
2023-01-09T08:58:33.542Z,1028.12
2023-01-09T08:59:34.159Z,1028.10
2023-01-09T09:00:34.800Z,1028.07
2023-01-09T09:01:35.591Z,1028.05
2023-01-09T09:02:36.306Z,1028.10
2023-01-09T09:03:36.927Z,1028.12
2023-01-09T09:04:37.522Z,1028.19
2023-01-09T09:05:38.121Z,1028.19
2023-01-09T09:06:38.712Z,1028.18
2023-01-09T09:07:39.317Z,1028.21
2023-01-09T09:08:40.707Z,1028.26
2023-01-09T09:09:41.308Z,1028.29
2023-01-09T09:10:41.902Z,1028.28
2023-01-09T09:11:42.565Z,1028.30
2023-01-09T09:12:43.170Z,1028.36
2023-01-09T09:13:43.904Z,1028.36
2023-01-09T09:14:44.499Z,1028.42
2023-01-09T09:15:45.136Z,1028.48
2023-01-09T09:16:45.745Z,1028.54
2023-01-09T09:17:46.349Z,1028.37
2023-01-09T09:18:46.943Z,1028.44
2023-01-09T09:19:47.553Z,1028.48
2023-01-09T09:20:48.218Z,1028.44
2023-01-09T09:21:48.816Z,1028.51
2023-01-09T09:22:49.408Z,1028.47
2023-01-09T09:23:50.161Z,1028.51
2023-01-09T09:24:50.756Z,1028.55
2023-01-09T09:25:51.411Z,1028.54
2023-01-09T09:26:52.005Z,1028.55
2023-01-09T09:27:52.607Z,1028.58
2023-01-09T09:28:53.205Z,1028.58
2023-01-09T09:29:53.802Z,1028.54
2023-01-09T09:30:54.456Z,1028.58
2023-01-09T09:31:55.100Z,1028.60
2023-01-09T09:32:55.731Z,1028.70
2023-01-09T09:33:56.382Z,1028.63
2023-01-09T09:34:56.976Z,1028.67
2023-01-09T09:35:57.577Z,1028.69
2023-01-09T09:36:58.261Z,1028.71
2023-01-09T09:37:58.861Z,1028.69
2023-01-09T09:38:59.470Z,1028.72
2023-01-09T09:40:09.827Z,1028.72
2023-01-09T09:41:01.655Z,1028.76
2023-01-09T09:42:02.245Z,1028.74
2023-01-09T09:43:02.841Z,1028.81
2023-01-09T09:44:03.486Z,1028.83
2023-01-09T09:45:04.229Z,1028.89
2023-01-09T09:46:04.954Z,1028.89
2023-01-09T09:47:05.582Z,1028.88
2023-01-09T09:48:06.195Z,1028.93
2023-01-09T09:49:07.200Z,1028.97
2023-01-09T09:50:07.505Z,1029.01
2023-01-09T09:51:08.903Z,1029.11
2023-01-09T09:52:09.577Z,1029.05
2023-01-09T09:53:10.160Z,1029.07
2023-01-09T09:54:13.606Z,1029.04
2023-01-09T09:55:12.345Z,1029.12
2023-01-09T09:56:12.949Z,1029.13
2023-01-09T09:57:13.542Z,1029.24
2023-01-09T09:58:14.143Z,1029.17
2023-01-09T09:59:14.736Z,1029.20
2023-01-09T10:00:15.338Z,1029.29
2023-01-09T10:01:15.931Z,1029.25
2023-01-09T10:02:16.577Z,1029.27
2023-01-09T10:03:23.219Z,1029.34
2023-01-09T10:04:18.774Z,1029.23
2023-01-09T10:05:19.447Z,1029.33
2023-01-09T10:06:20.115Z,1029.35
2023-01-09T10:07:20.700Z,1029.31
2023-01-09T10:08:21.298Z,1029.33
2023-01-09T10:09:21.892Z,1029.31
2023-01-09T10:10:22.549Z,1029.33
2023-01-09T10:11:23.168Z,1029.34
2023-01-09T10:12:23.809Z,1029.33
2023-01-09T10:13:24.495Z,1029.47
2023-01-09T10:14:25.078Z,1029.50
2023-01-09T10:15:25.674Z,1029.49
2023-01-09T10:16:26.298Z,1029.47
2023-01-09T10:17:26.950Z,1029.48
2023-01-09T10:18:27.602Z,1029.50
2023-01-09T10:19:28.264Z,1029.48
2023-01-09T10:20:28.854Z,1029.47
2023-01-09T10:21:29.456Z,1029.50
2023-01-09T10:22:30.048Z,1029.54
2023-01-09T10:23:30.653Z,1029.58
2023-01-09T10:24:31.244Z,1029.62
2023-01-09T10:25:31.860Z,1029.55
2023-01-09T10:26:32.632Z,1029.67
2023-01-09T10:27:34.022Z,1029.66
2023-01-09T10:28:34.617Z,1029.66
2023-01-09T10:29:35.224Z,1029.66
2023-01-09T10:30:35.811Z,1029.65
2023-01-09T10:31:36.512Z,1029.71
2023-01-09T10:32:37.154Z,1029.72
2023-01-09T10:33:37.757Z,1029.72
2023-01-09T10:34:38.359Z,1029.77
2023-01-09T10:35:47.359Z,1029.71
2023-01-09T10:36:40.778Z,1029.83
2023-01-09T10:37:41.373Z,1029.82
2023-01-09T10:38:42.024Z,1029.82
2023-01-09T10:39:42.628Z,1029.79
2023-01-09T10:40:43.232Z,1029.74
2023-01-09T10:41:43.886Z,1029.75
2023-01-09T10:42:44.479Z,1029.74
2023-01-09T10:43:45.081Z,1029.77
2023-01-09T10:44:45.684Z,1029.79
2023-01-09T10:45:46.280Z,1029.75
2023-01-09T10:46:46.982Z,1029.77
2023-01-09T10:47:47.644Z,1029.76
2023-01-09T10:48:48.285Z,1029.74
2023-01-09T10:49:48.887Z,1029.76
2023-01-09T10:50:49.505Z,1029.79
2023-01-09T10:51:50.095Z,1029.84
2023-01-09T10:52:50.763Z,1029.86
2023-01-09T10:53:51.426Z,1029.72
2023-01-09T10:54:52.091Z,1029.72
2023-01-09T10:55:52.693Z,1029.72
2023-01-09T10:56:53.288Z,1029.75
2023-01-09T10:57:53.954Z,1029.82
2023-01-09T10:58:54.545Z,1029.78
2023-01-09T10:59:55.147Z,1029.75
2023-01-09T11:00:55.742Z,1029.78
2023-01-09T11:01:56.366Z,1029.76
2023-01-09T11:02:57.005Z,1029.82
2023-01-09T11:03:57.666Z,1029.83
2023-01-09T11:04:58.259Z,1029.82
2023-01-09T11:05:58.863Z,1029.76
2023-01-09T11:06:59.455Z,1029.88
2023-01-09T11:08:00.120Z,1029.93
2023-01-09T11:09:00.791Z,1029.85
2023-01-09T11:10:01.387Z,1029.88
2023-01-09T11:11:02.065Z,1029.82
2023-01-09T11:12:02.660Z,1029.82
2023-01-09T11:13:03.246Z,1029.85
2023-01-09T11:14:03.845Z,1029.87
2023-01-09T11:15:05.297Z,1029.86
2023-01-09T11:16:06.055Z,1029.80
2023-01-09T11:17:06.732Z,1029.93
2023-01-09T11:18:07.333Z,1029.92
2023-01-09T11:19:07.930Z,1029.88
2023-01-09T11:20:08.529Z,1029.95
2023-01-09T11:21:09.123Z,1029.98
2023-01-09T11:22:09.726Z,1029.94
2023-01-09T11:23:10.321Z,1029.91
2023-01-09T11:24:10.927Z,1029.84
2023-01-09T11:25:11.528Z,1029.89
2023-01-09T11:26:12.179Z,1029.84
2023-01-09T11:27:12.770Z,1029.82
2023-01-09T11:28:13.372Z,1029.85
2023-01-09T11:29:13.975Z,1029.87
2023-01-09T11:30:15.399Z,1029.96
2023-01-09T11:31:16.005Z,1029.91
2023-01-09T11:32:16.618Z,1029.96
2023-01-09T11:33:17.266Z,1029.87
2023-01-09T11:34:17.867Z,1029.96
2023-01-09T11:35:18.546Z,1030.00
2023-01-09T11:36:19.204Z,1029.99
2023-01-09T11:37:19.790Z,1029.96
2023-01-09T11:38:20.392Z,1030.02
2023-01-09T11:39:21.035Z,1029.99
2023-01-09T11:40:21.689Z,1030.02
2023-01-09T11:41:22.287Z,1030.01
2023-01-09T11:42:22.893Z,1030.01
2023-01-09T11:43:23.479Z,1030.05
2023-01-09T11:44:24.145Z,1029.99
2023-01-09T11:45:24.732Z,1030.00
2023-01-09T11:46:25.379Z,1029.93
2023-01-09T11:47:25.967Z,1029.99
2023-01-09T11:48:26.577Z,1030.02
2023-01-09T11:49:27.236Z,1029.99
2023-01-09T11:50:27.862Z,1030.05
2023-01-09T11:51:28.434Z,1030.04
2023-01-09T11:52:29.046Z,1030.05
2023-01-09T11:53:29.684Z,1030.07
2023-01-09T11:54:30.285Z,1030.04
2023-01-09T11:55:41.809Z,1030.14
2023-01-09T11:56:31.541Z,1030.02
2023-01-09T11:57:32.139Z,1030.03
2023-01-09T11:58:32.738Z,1029.98
2023-01-09T11:59:33.332Z,1029.97
2023-01-09T12:00:33.930Z,1029.98
2023-01-09T12:01:34.585Z,1030.04
2023-01-09T12:02:35.245Z,1030.02
2023-01-09T12:03:35.845Z,1029.93
2023-01-09T12:04:36.431Z,1030.05
2023-01-09T12:05:37.069Z,1030.04
2023-01-09T12:06:37.662Z,1030.00
2023-01-09T12:07:38.266Z,1030.02
2023-01-09T12:08:38.864Z,1030.03
2023-01-09T12:09:39.450Z,1029.96
2023-01-09T12:10:40.062Z,1029.99
2023-01-09T12:11:40.642Z,1029.94
2023-01-09T12:12:41.304Z,1029.85
2023-01-09T12:13:41.896Z,1029.81